Time;durP1;ratioP1;P1;durP2;ratioP2;P2;SDS_P1;SDS_P2;PMS_P1;PMS_P2;Temp;Humidity;BMP_temperature;BMP_pressure;BME280_temperature;BME280_humidity;BME280_pressure;Samples;Min_cycle;Max_cycle;Signal;HPM_P1;HPM_P2
2022/05/10 00:04:38;;;;;;;11.63;5.70;;;;;;;14.55;55.71;101959.06;10545227;28;20140;-70
2022/05/10 00:09:38;;;;;;;10.80;5.13;;;;;;;14.55;55.25;101951.75;10526200;28;20039;-71
2022/05/10 00:14:39;;;;;;;7.80;5.20;;;;;;;14.48;55.47;101937.16;10525624;28;20059;-72
2022/05/10 00:19:39;;;;;;;18.33;5.95;;;;;;;14.43;55.18;101939.66;10543007;28;20032;-71
2022/05/10 00:24:39;;;;;;;6.70;5.10;;;;;;;14.45;55.38;101939.44;10542678;28;20036;-71
2022/05/10 00:29:40;;;;;;;8.07;5.72;;;;;;;14.46;55.66;101939.28;10541899;28;20039;-70
2022/05/10 00:34:40;;;;;;;13.48;5.57;;;;;;;14.58;55.68;101918.63;10542807;28;20028;-72
2022/05/10 00:39:41;;;;;;;11.63;5.18;;;;;;;14.72;56.91;101919.56;10525195;28;20032;-71
2022/05/10 00:44:55;;;;;;;9.57;6.35;;;;;;;14.83;56.26;101909.97;10541668;28;20499;-71
2022/05/10 00:50:13;;;;;;;10.23;4.63;;;;;;;14.93;56.68;101913.16;10524756;28;20028;-70
2022/05/10 00:55:19;;;;;;;9.40;5.10;;;;;;;14.99;55.94;101901.44;10509205;28;20027;-70
2022/05/10 01:00:24;;;;;;;10.98;5.78;;;;;;;14.96;55.18;101898.28;10506753;28;20418;-71
2022/05/10 01:05:43;;;;;;;14.93;7.13;;;;;;;14.95;55.83;101889.25;10522795;28;20040;-71
2022/05/10 01:11:08;;;;;;;16.92;5.57;;;;;;;14.92;57.60;101886.94;10540985;28;20382;-71
2022/05/10 01:16:19;;;;;;;6.55;5.38;;;;;;;14.91;56.07;101878.97;10540874;28;20384;-71
2022/05/10 01:21:27;;;;;;;20.85;6.35;;;;;;;14.81;56.16;101872.00;10539783;28;20028;-71
2022/05/10 01:27:26;;;;;;;8.80;4.93;;;;;;;14.83;55.73;101860.88;10540972;28;20028;-71
2022/05/10 01:37:51;;;;;;;14.20;6.95;;;;;;;14.75;55.90;101847.44;10524740;28;20024;-71
2022/05/10 01:43:07;;;;;;;14.32;7.70;;;;;;;14.85;57.71;101837.81;10504763;28;20048;-71
2022/05/10 01:48:09;;;;;;;9.47;6.00;;;;;;;14.96;64.25;101832.81;10523900;28;20372;-70
2022/05/10 01:53:11;;;;;;;18.25;7.63;;;;;;;14.94;69.76;101811.22;10522072;28;20035;-71
2022/05/10 01:58:23;;;;;;;19.55;7.90;;;;;;;15.15;66.31;101825.75;10521017;28;20510;-71
2022/05/10 02:03:24;;;;;;;12.93;6.70;;;;;;;15.28;63.42;101803.97;10540554;28;20071;-71
2022/05/10 02:08:39;;;;;;;15.10;6.95;;;;;;;15.41;63.02;101808.59;10540296;28;20117;-72
2022/05/10 02:14:00;;;;;;;23.30;7.40;;;;;;;15.48;64.11;101807.59;10539712;28;20375;-71
2022/05/10 02:19:10;;;;;;;14.00;8.35;;;;;;;15.58;65.20;101797.09;10507632;28;20062;-71
2022/05/10 02:24:31;;;;;;;12.07;7.53;;;;;;;15.71;64.61;101792.72;10539456;28;20360;-71
2022/05/10 02:29:58;;;;;;;17.85;7.22;;;;;;;15.79;64.47;101789.75;10538720;28;20032;-71
2022/05/10 02:34:59;;;;;;;16.75;8.00;;;;;;;15.81;66.25;101785.78;10529230;28;20062;-71
2022/05/10 02:39:59;;;;;;;11.85;8.20;;;;;;;15.88;64.69;101776.75;10528841;28;20032;-71
2022/05/10 02:45:00;;;;;;;10.00;6.28;;;;;;;15.86;65.81;101770.63;10545987;28;20048;-71
2022/05/10 02:50:01;;;;;;;14.05;8.20;;;;;;;15.88;64.62;101772.13;10512369;28;20436;-71
2022/05/10 02:55:06;;;;;;;12.82;7.90;;;;;;;15.80;66.62;101770.44;10545781;28;20451;-71
2022/05/10 03:00:07;;;;;;;24.10;9.18;;;;;;;15.79;66.10;101763.31;10528564;28;20051;-71
2022/05/10 03:05:08;;;;;;;13.73;7.20;;;;;;;15.82;66.75;101751.09;10527836;28;20028;-71
2022/05/10 03:10:09;;;;;;;8.73;7.35;;;;;;;15.90;65.52;101756.38;10546332;28;20043;-71
2022/05/10 03:15:09;;;;;;;15.98;8.57;;;;;;;15.84;67.78;101754.47;10544486;28;20032;-71
2022/05/10 03:20:10;;;;;;;10.90;7.40;;;;;;;15.94;65.42;101752.16;10545964;28;20479;-72
2022/05/10 03:25:10;;;;;;;8.07;6.95;;;;;;;15.92;65.93;101737.03;10545615;28;20345;-71
2022/05/10 03:30:11;;;;;;;8.93;7.40;;;;;;;15.95;66.04;101732.00;10509987;28;20032;-71
2022/05/10 03:35:15;;;;;;;12.32;8.95;;;;;;;15.94;66.55;101729.47;10543031;28;20055;-71
2022/05/10 03:40:16;;;;;;;19.48;9.32;;;;;;;15.88;67.23;101728.41;10544489;28;20444;-72
2022/05/10 03:45:18;;;;;;;11.75;7.80;;;;;;;15.87;67.27;101724.00;10525441;28;20056;-71
2022/05/10 03:50:21;;;;;;;11.77;7.53;;;;;;;15.92;66.88;101726.09;10545163;28;20031;-71
2022/05/10 03:55:23;;;;;;;14.93;8.27;;;;;;;15.94;66.43;101716.63;10543820;28;20375;-71
2022/05/10 04:00:26;;;;;;;8.50;6.75;;;;;;;15.94;66.97;101705.72;10543525;28;20455;-71
2022/05/10 04:05:26;;;;;;;13.90;8.55;;;;;;;15.95;68.29;101703.81;10542579;28;20032;-72
2022/05/10 04:10:26;;;;;;;11.43;7.78;;;;;;;16.02;67.92;101700.03;10543283;28;20487;-71
2022/05/10 04:15:27;;;;;;;18.92;9.10;;;;;;;16.00;68.41;101691.19;10525923;28;20059;-71
2022/05/10 04:20:27;;;;;;;15.15;7.55;;;;;;;15.98;68.68;101696.03;10526162;28;20077;-71
2022/05/10 04:25:28;;;;;;;15.23;9.40;;;;;;;16.14;67.55;101689.25;10543092;28;20391;-71
2022/05/10 04:30:28;;;;;;;15.55;10.10;;;;;;;16.10;68.14;101685.28;10523641;28;20074;-71
2022/05/10 04:35:29;;;;;;;12.90;7.38;;;;;;;16.24;67.45;101683.34;10523968;28;20032;-72
2022/05/10 04:45:48;;;;;;;17.02;9.43;;;;;;;16.36;66.86;101681.59;10539956;28;20044;-72
2022/05/10 04:50:48;;;;;;;17.52;10.38;;;;;;;16.43;67.12;101685.19;10542313;28;20059;-71
2022/05/10 04:55:49;;;;;;;18.90;9.95;;;;;;;16.39;67.95;101683.06;10541587;28;20071;-71
2022/05/10 05:00:49;;;;;;;20.35;9.77;;;;;;;16.46;67.98;101673.81;10540243;28;20039;-72
2022/05/10 05:05:50;;;;;;;12.82;7.95;;;;;;;16.53;67.63;101676.50;10541342;28;20055;-71
2022/05/10 05:10:50;;;;;;;16.90;9.43;;;;;;;16.70;66.69;101682.31;10541222;28;20028;-71
2022/05/10 05:15:51;;;;;;;24.48;9.82;;;;;;;16.86;65.48;101686.44;10541533;28;20398;-70
2022/05/10 05:20:51;;;;;;;15.10;8.80;;;;;;;16.85;66.46;101679.31;10522274;28;20035;-72
2022/05/10 05:25:55;;;;;;;19.40;9.55;;;;;;;16.95;66.07;101682.38;10540530;28;20028;-73
2022/05/10 05:30:56;;;;;;;11.20;9.10;;;;;;;17.10;65.36;101680.19;10539277;28;20032;-72
2022/05/10 05:35:56;;;;;;;11.15;8.70;;;;;;;17.23;65.20;101681.97;10537972;28;20040;-71
2022/05/10 05:40:56;;;;;;;15.38;8.85;;;;;;;17.36;64.87;101665.44;10540068;28;20032;-72
2022/05/10 05:45:57;;;;;;;23.17;9.73;;;;;;;17.54;64.06;101672.00;10522312;28;20396;-71
2022/05/10 05:50:57;;;;;;;23.08;11.00;;;;;;;17.64;63.72;101666.84;10539237;28;20036;-72
2022/05/10 05:56:08;;;;;;;10.48;9.35;;;;;;;17.72;63.64;101652.88;10538978;28;20081;-72
2022/05/10 06:01:13;;;;;;;15.07;9.25;;;;;;;17.75;63.70;101655.16;10538841;28;20401;-72
2022/05/10 06:06:13;;;;;;;14.57;10.45;;;;;;;17.93;62.69;101653.53;10521374;28;20035;-72
2022/05/10 06:11:14;;;;;;;12.07;9.70;;;;;;;18.10;62.90;101649.13;10538614;28;20040;-73
2022/05/10 06:16:14;;;;;;;12.98;9.27;;;;;;;18.24;62.66;101644.28;10519925;28;20036;-72
2022/05/10 06:21:15;;;;;;;9.63;8.07;;;;;;;18.49;61.84;101630.47;10538274;28;20040;-72
2022/05/10 06:26:15;;;;;;;18.00;7.45;;;;;;;18.63;60.98;101631.09;10519807;28;20169;-72
2022/05/10 06:31:16;;;;;;;13.13;8.57;;;;;;;18.86;60.08;101624.88;10536346;28;20032;-73
2022/05/10 06:36:16;;;;;;;22.52;8.98;;;;;;;18.99;59.77;101619.19;10538077;28;20028;-71
2022/05/10 06:41:16;;;;;;;10.35;6.25;;;;;;;19.26;59.29;101628.66;10519853;28;20028;-72
2022/05/10 06:46:19;;;;;;;9.73;6.88;;;;;;;19.51;58.98;101611.94;10519657;28;20450;-72
2022/05/10 06:51:23;;;;;;;10.45;7.07;;;;;;;19.61;58.23;101605.84;10537736;28;20368;-72
2022/05/10 06:56:24;;;;;;;9.57;6.65;;;;;;;19.78;58.07;101605.13;10536520;28;20035;-72
2022/05/10 07:01:25;;;;;;;14.00;6.10;;;;;;;19.90;57.08;101608.69;10537024;28;20109;-71
2022/05/10 07:06:27;;;;;;;13.07;5.05;;;;;;;20.03;56.87;101599.34;10537089;28;20063;-73
2022/05/10 07:11:27;;;;;;;13.70;5.82;;;;;;;20.13;56.46;101603.16;10520567;28;20119;-72
2022/05/10 07:16:27;;;;;;;11.38;4.80;;;;;;;20.24;56.23;101589.59;10536531;28;20032;-71
2022/05/10 07:21:28;;;;;;;7.57;4.40;;;;;;;20.39;56.19;101601.72;10525123;28;20437;-72
2022/05/10 07:26:28;;;;;;;11.20;5.32;;;;;;;20.72;55.27;101591.88;10544759;28;20036;-72
2022/05/10 07:31:29;;;;;;;9.00;4.22;;;;;;;21.56;53.56;101572.56;10526308;28;20043;-73
2022/05/10 07:36:33;;;;;;;5.50;4.68;;;;;;;21.78;52.58;101575.34;10526254;28;20071;-72
2022/05/10 07:41:37;;;;;;;6.00;5.28;;;;;;;22.02;51.94;101586.13;10543918;28;20388;-73
2022/05/10 07:46:37;;;;;;;10.75;5.43;;;;;;;22.97;50.13;101570.84;10509809;28;20044;-73
2022/05/10 07:51:38;;;;;;;13.55;5.68;;;;;;;22.91;49.26;101571.88;10542596;28;20115;-72
2022/05/10 07:56:38;;;;;;;8.27;5.50;;;;;;;23.11;48.72;101579.50;10543445;28;20487;-72
2022/05/10 08:01:39;;;;;;;6.95;5.38;;;;;;;23.55;47.16;101570.13;10543387;28;20063;-72
2022/05/10 08:06:39;;;;;;;8.13;5.22;;;;;;;24.22;46.81;101557.38;10543275;28;20036;-71
2022/05/10 08:11:39;;;;;;;5.40;4.35;;;;;;;23.77;47.03;101570.81;10543568;28;20032;-73
2022/05/10 08:16:40;;;;;;;3.97;3.67;;;;;;;23.76;47.14;101563.59;10543465;28;20039;-72
2022/05/10 08:21:40;;;;;;;7.15;6.10;;;;;;;23.56;47.26;101561.56;10547809;28;20087;-73
2022/05/10 08:26:41;;;;;;;15.75;6.32;;;;;;;23.51;47.79;101578.09;10547353;28;20043;-71
2022/05/10 08:31:41;;;;;;;6.75;5.38;;;;;;;23.51;48.23;101569.81;10541529;28;20440;-72
2022/05/10 08:36:41;;;;;;;7.68;5.50;;;;;;;24.52;46.45;101568.56;10523666;28;20110;-72
2022/05/10 08:41:52;;;;;;;15.85;6.10;;;;;;;25.73;43.95;101565.94;10542103;28;20078;-72
2022/05/10 08:46:58;;;;;;;11.18;5.95;;;;;;;24.94;44.80;101577.72;10506712;28;20452;-72
2022/05/10 08:51:59;;;;;;;4.45;4.05;;;;;;;24.04;46.67;101584.47;10541823;28;20413;-73
2022/05/10 08:57:02;;;;;;;8.63;5.07;;;;;;;23.74;47.48;101582.44;10523286;28;20088;-72
2022/05/10 09:02:09;;;;;;;7.90;4.50;;;;;;;23.82;47.43;101570.81;10506840;28;20038;-73
2022/05/10 09:08:01;;;;;;;5.07;3.65;;;;;;;24.36;47.56;101581.50;10523678;28;20032;-73
2022/05/10 09:13:03;;;;;;;5.43;4.60;;;;;;;23.88;47.00;101586.34;10470779;28;20181;-73
2022/05/10 09:18:19;;;;;;;5.13;4.32;;;;;;;23.45;48.10;101593.00;10542531;28;20040;-73
2022/05/10 09:23:52;;;;;;;4.60;4.20;;;;;;;23.61;48.53;101580.09;10541903;28;20542;-71
2022/05/10 09:29:05;;;;;;;4.65;4.25;;;;;;;23.86;47.83;101587.72;10509362;28;20024;-73
2022/05/10 09:39:31;;;;;;;4.50;4.07;;;;;;;24.00;47.51;101588.06;10539666;28;20081;-72
2022/05/10 09:44:32;;;;;;;16.30;5.50;;;;;;;24.83;46.24;101574.97;10521810;28;20507;-71
2022/05/10 09:49:34;;;;;;;3.45;3.22;;;;;;;25.59;44.04;101575.13;10540156;28;20119;-72
2022/05/10 09:54:39;;;;;;;8.20;4.60;;;;;;;25.27;44.84;101577.19;10537639;28;20035;-71
2022/05/10 09:59:48;;;;;;;6.03;4.68;;;;;;;24.87;45.02;101597.41;10487934;28;20020;-71
2022/05/10 10:04:49;;;;;;;5.60;4.30;;;;;;;25.24;44.32;101599.91;10539049;28;20426;-72
2022/05/10 10:09:52;;;;;;;6.00;4.00;;;;;;;26.17;41.07;101597.72;10522778;28;20064;-71
2022/05/10 10:14:52;;;;;;;10.73;3.17;;;;;;;26.56;40.64;101596.94;10538632;28;20182;-72
2022/05/10 10:19:59;;;;;;;5.77;4.57;;;;;;;26.15;39.99;101592.44;10539141;28;20462;-71
2022/05/10 10:25:14;;;;;;;4.05;3.75;;;;;;;27.05;38.24;101591.25;10488859;28;20272;-71
2022/05/10 10:30:36;;;;;;;3.28;3.08;;;;;;;25.86;39.30;101597.00;10504151;28;20032;-73
2022/05/10 10:35:42;;;;;;;9.82;3.80;;;;;;;25.68;39.85;101588.16;10520022;28;20078;-71
2022/05/10 10:40:48;;;;;;;5.07;4.13;;;;;;;25.90;39.39;101589.78;10521711;28;20028;-72
2022/05/10 10:46:08;;;;;;;5.90;2.78;;;;;;;26.38;37.47;101588.13;10520352;28;20052;-72
2022/05/10 10:51:09;;;;;;;15.57;2.85;;;;;;;26.67;36.57;101595.72;10521467;28;20089;-72
2022/05/10 10:56:38;;;;;;;11.15;3.63;;;;;;;27.52;36.55;101578.59;10527561;28;20077;-72
2022/05/10 11:02:02;;;;;;;9.13;3.90;;;;;;;27.54;36.09;101583.88;10512056;28;20470;-72
2022/05/10 11:07:14;;;;;;;13.10;3.65;;;;;;;27.12;36.98;101588.97;10546048;28;20129;-71
2022/05/10 11:12:31;;;;;;;3.40;3.13;;;;;;;26.01;38.85;101582.25;10545389;28;20028;-71
2022/05/10 11:17:48;;;;;;;4.35;3.63;;;;;;;25.51;39.45;101579.34;10527718;28;20036;-71
2022/05/10 11:22:58;;;;;;;4.47;2.90;;;;;;;25.34;40.70;101578.84;10527695;28;20044;-71
2022/05/10 11:28:17;;;;;;;2.90;2.67;;;;;;;26.04;38.85;101582.50;10510402;28;20503;-71
2022/05/10 11:33:47;;;;;;;4.07;3.40;;;;;;;25.67;39.56;101566.25;10544383;28;20391;-72
2022/05/10 11:39:03;;;;;;;4.63;4.07;;;;;;;26.05;38.86;101575.81;10543639;28;20028;-71
2022/05/10 11:44:09;;;;;;;3.57;3.33;;;;;;;25.51;39.06;101568.25;10544180;28;20054;-71
2022/05/10 11:49:29;;;;;;;;;;;;;;;25.15;40.92;101565.56;10544514;28;20483;-72
2022/05/10 11:54:32;;;;;;;4.55;3.10;;;;;;;24.91;41.15;101569.97;10509730;28;19916;-73
2022/05/10 11:59:34;;;;;;;4.35;3.05;;;;;;;24.46;41.23;101571.59;10543135;28;20039;-71
2022/05/10 12:04:38;;;;;;;13.00;3.88;;;;;;;23.85;41.59;101562.00;10543097;28;20100;-73
2022/05/10 12:09:51;;;;;;;3.10;2.80;;;;;;;23.36;41.23;101564.22;10527748;28;20459;-71
2022/05/10 12:25:49;;;;;;;4.72;3.08;;;;;;;23.58;40.33;101556.59;10517454;28;20531;-72
2022/05/10 12:30:49;;;;;;;3.58;2.05;;;;;;;23.24;41.77;101553.34;10545901;28;20028;-71
2022/05/10 12:35:50;;;;;;;3.28;2.88;;;;;;;23.13;39.92;101559.91;10547764;28;20106;-72
2022/05/10 12:41:07;;;;;;;6.82;3.30;;;;;;;23.66;39.17;101550.53;10549211;28;20046;-72
2022/05/10 12:46:23;;;;;;;1.98;1.88;;;;;;;23.75;38.95;101542.59;10516373;28;20050;-72
2022/05/10 12:51:30;;;;;;;;;;;;;;;23.54;37.54;101540.81;10513332;28;20376;-71
2022/05/10 12:56:34;;;;;;;2.77;2.10;;;;;;;22.79;39.35;101524.28;10533143;28;20007;-71
2022/05/10 13:01:36;;;;;;;1.90;1.80;;;;;;;22.98;39.50;101531.09;10512330;28;20114;-71
2022/05/10 13:07:00;;;;;;;2.85;1.85;;;;;;;23.21;39.67;101531.78;10545082;28;20028;-72
2022/05/10 13:12:19;;;;;;;7.85;2.17;;;;;;;22.95;40.44;101536.31;10529625;28;20064;-72
2022/05/10 13:17:21;;;;;;;1.63;1.52;;;;;;;22.67;39.70;101524.44;10529751;28;20024;-71
2022/05/10 13:22:22;;;;;;;4.13;2.78;;;;;;;22.37;41.21;101522.25;10546580;28;20411;-72
2022/05/10 13:27:30;;;;;;;3.63;3.13;;;;;;;22.14;41.97;101512.31;10546768;28;20039;-72
2022/05/10 13:32:40;;;;;;;4.35;2.97;;;;;;;21.61;43.32;101513.09;10542150;28;20028;-71
2022/05/10 13:37:53;;;;;;;5.10;2.25;;;;;;;21.47;44.40;101515.38;10541662;28;20060;-72
2022/05/10 13:42:53;;;;;;;10.98;3.38;;;;;;;21.22;45.96;101518.59;10538083;28;20024;-72
2022/05/10 13:48:05;;;;;;;3.72;3.40;;;;;;;20.68;48.65;101513.66;10521579;28;20055;-72
2022/05/10 13:53:12;;;;;;;4.70;3.25;;;;;;;20.62;48.61;101512.75;10522927;28;20126;-72
2022/05/10 13:58:16;;;;;;;4.22;2.92;;;;;;;20.75;49.60;101527.25;10507241;28;20090;-72
2022/05/10 14:03:18;;;;;;;6.45;4.10;;;;;;;20.34;51.96;101518.25;10539032;28;20028;-71
2022/05/10 14:08:20;;;;;;;2.65;2.42;;;;;;;20.30;51.35;101508.84;10521585;28;20078;-72
2022/05/10 14:13:20;;;;;;;3.83;3.42;;;;;;;20.28;50.50;101498.06;10521202;28;20040;-71
2022/05/10 14:18:27;;;;;;;6.10;2.35;;;;;;;20.33;50.02;101492.69;10537005;28;20044;-71
2022/05/10 14:23:27;;;;;;;8.40;3.40;;;;;;;20.43;49.40;101483.75;10522770;28;20028;-71
2022/05/10 14:28:33;;;;;;;2.45;2.22;;;;;;;20.30;49.10;101484.91;10525041;28;20036;-72
2022/05/10 14:33:39;;;;;;;2.67;2.43;;;;;;;20.32;49.86;101501.16;10548561;28;20028;-72
2022/05/10 14:38:44;;;;;;;6.57;3.72;;;;;;;20.17;51.32;101486.06;10528706;28;20032;-72
2022/05/10 14:43:44;;;;;;;4.63;3.17;;;;;;;19.89;52.70;101491.59;10546488;28;20126;-72
2022/05/10 14:48:57;;;;;;;3.65;2.70;;;;;;;19.59;54.46;101494.50;10547655;28;20562;-71
2022/05/10 14:53:57;;;;;;;2.78;2.47;;;;;;;19.48;54.03;101512.69;10546171;28;20429;-72
2022/05/10 14:59:16;;;;;;;3.17;2.92;;;;;;;19.44;55.98;101500.53;10546210;28;20039;-72
2022/05/10 15:04:19;;;;;;;8.55;4.25;;;;;;;18.97;59.87;101503.31;10546232;28;20120;-72
2022/05/10 15:09:20;;;;;;;4.32;3.92;;;;;;;18.78;60.62;101502.59;10546298;28;20032;-73
2022/05/10 15:14:23;;;;;;;4.47;3.28;;;;;;;18.97;59.82;101500.56;10528924;28;20032;-73
2022/05/10 15:19:23;;;;;;;8.57;3.15;;;;;;;19.09;60.29;101490.41;10527547;28;20044;-72
2022/05/10 15:24:23;;;;;;;8.15;4.15;;;;;;;19.12;59.56;101498.19;10527086;28;20407;-72
2022/05/10 15:29:26;;;;;;;5.97;3.47;;;;;;;19.07;59.26;101500.78;10545427;28;20040;-72
2022/05/10 15:34:44;;;;;;;4.85;3.55;;;;;;;19.05;57.97;101494.72;10526695;28;20030;-72
2022/05/10 15:39:45;;;;;;;5.57;2.85;;;;;;;18.80;58.01;101504.03;10544405;28;20043;-71
2022/05/10 15:44:45;;;;;;;3.00;2.80;;;;;;;18.72;58.36;101489.78;10526603;28;20055;-72
2022/05/10 15:49:46;;;;;;;5.45;2.72;;;;;;;18.24;59.39;101488.84;10525439;28;20107;-72
2022/05/10 15:54:47;;;;;;;2.28;2.08;;;;;;;18.13;58.27;101495.16;10544949;28;20032;-72
2022/05/10 15:59:48;;;;;;;4.18;2.42;;;;;;;18.01;57.06;101494.28;10542803;28;20368;-71
2022/05/10 16:04:50;;;;;;;10.40;2.22;;;;;;;18.06;57.56;101494.41;10525512;28;20031;-71
2022/05/10 16:09:51;;;;;;;6.03;3.10;;;;;;;18.07;57.86;101487.88;10525327;28;20089;-72
2022/05/10 16:14:52;;;;;;;3.30;2.63;;;;;;;17.86;58.41;101495.50;10543188;28;20349;-72
2022/05/10 16:19:52;;;;;;;4.40;3.13;;;;;;;17.81;59.64;101498.13;10526088;28;20036;-73
2022/05/10 16:24:53;;;;;;;5.90;3.38;;;;;;;17.56;61.29;101487.25;10542654;28;20028;-72
2022/05/10 16:29:55;;;;;;;26.35;2.38;;;;;;;17.42;62.27;101481.09;10524486;28;20040;-72
2022/05/10 16:34:55;;;;;;;3.97;2.67;;;;;;;17.33;62.83;101481.63;10508313;28;20525;-72
2022/05/10 16:39:56;;;;;;;4.43;2.38;;;;;;;17.36;62.92;101483.91;10542591;28;20080;-71
2022/05/10 16:44:56;;;;;;;3.50;1.85;;;;;;;17.19;62.65;101472.72;10540722;28;20438;-72
2022/05/10 16:49:57;;;;;;;8.15;2.60;;;;;;;17.32;61.94;101478.03;10540198;28;20043;-72
2022/05/10 16:54:57;;;;;;;11.18;2.10;;;;;;;17.44;62.80;101480.84;10541660;28;20028;-72
2022/05/10 16:59:59;;;;;;;6.63;2.15;;;;;;;17.54;62.82;101470.19;10541784;28;20036;-72
2022/05/10 17:05:07;;;;;;;2.38;2.15;;;;;;;17.57;66.84;101464.25;10541776;28;20020;-73
2022/05/10 17:10:10;;;;;;;5.50;1.75;;;;;;;17.86;67.78;101468.13;10539851;28;20336;-72
2022/05/10 17:15:10;;;;;;;2.10;1.52;;;;;;;18.09;67.13;101463.78;10540736;28;20035;-72
2022/05/10 17:20:14;;;;;;;1.85;1.13;;;;;;;17.98;67.43;101465.44;10522633;28;20051;-72
2022/05/10 17:25:17;;;;;;;1.35;1.30;;;;;;;17.92;68.34;101463.63;10540504;28;20047;-71
2022/05/10 17:30:17;;;;;;;6.93;1.65;;;;;;;17.83;71.20;101463.09;10522321;28;20460;-71
2022/05/10 17:35:18;;;;;;;7.85;2.22;;;;;;;17.83;72.62;101456.78;10539177;28;20031;-71
2022/05/10 17:40:18;;;;;;;1.95;1.50;;;;;;;17.91;73.11;101461.13;10541234;28;20040;-72
2022/05/10 17:45:19;;;;;;;2.78;1.58;;;;;;;17.69;73.91;101452.53;10540130;28;20048;-70
2022/05/10 17:50:20;;;;;;;6.95;2.35;;;;;;;17.61;74.23;101448.19;10539826;28;20058;-71
2022/05/10 17:55:20;;;;;;;1.90;1.75;;;;;;;17.70;74.01;101448.72;10505040;28;20032;-71
2022/05/10 18:00:21;;;;;;;7.13;2.10;;;;;;;17.88;73.58;101438.59;10521372;28;20403;-71
2022/05/10 18:05:22;;;;;;;1.95;1.67;;;;;;;17.80;74.82;101436.16;10540249;28;20040;-71
2022/05/10 18:10:22;;;;;;;2.25;1.70;;;;;;;17.69;76.14;101425.16;10538881;28;20039;-70
2022/05/10 18:15:23;;;;;;;6.07;1.13;;;;;;;17.70;76.98;101426.81;10539130;28;20035;-71
2022/05/10 18:20:24;;;;;;;1.83;1.73;;;;;;;17.51;78.23;101421.38;10520574;28;20464;-70
2022/05/10 18:25:24;;;;;;;4.07;2.60;;;;;;;17.20;80.44;101419.69;10539191;28;20054;-70
2022/05/10 18:30:25;;;;;;;8.82;2.75;;;;;;;16.98;80.98;101410.25;10538998;28;20036;-69
2022/05/10 18:35:27;;;;;;;2.03;1.52;;;;;;;16.88;80.59;101408.88;10538188;28;20044;-70
2022/05/10 18:40:29;;;;;;;1.75;1.15;;;;;;;16.68;81.47;101409.03;10538104;28;20036;-72
2022/05/10 18:45:30;;;;;;;2.47;1.55;;;;;;;16.48;83.34;101414.69;10539153;28;20410;-70
2022/05/10 18:50:30;;;;;;;2.20;1.83;;;;;;;16.40;82.62;101393.13;10520978;28;20039;-70
2022/05/10 18:55:31;;;;;;;5.38;1.45;;;;;;;16.31;81.12;101397.19;10519861;28;20036;-70
2022/05/10 19:00:31;;;;;;;7.57;1.13;;;;;;;16.14;83.88;101398.78;10540183;28;20032;-70
2022/05/10 19:05:32;;;;;;;1.75;1.52;;;;;;;16.07;83.86;101390.66;10537219;28;20395;-70
2022/05/10 19:10:34;;;;;;;3.00;1.40;;;;;;;16.07;83.47;101398.00;10536658;28;20036;-72
2022/05/10 19:15:35;;;;;;;1.63;1.52;;;;;;;16.02;82.41;101404.16;10508483;28;20028;-70
2022/05/10 19:20:35;;;;;;;1.52;1.42;;;;;;;15.86;85.37;101416.44;10527657;28;20036;-71
2022/05/10 19:25:36;;;;;;;1.60;1.50;;;;;;;15.81;84.78;101413.53;10529033;28;20127;-71
2022/05/10 19:30:36;;;;;;;2.00;1.85;;;;;;;15.72;84.50;101403.91;10526961;28;20032;-71
2022/05/10 19:35:38;;;;;;;3.95;1.95;;;;;;;15.67;83.52;101425.59;10543799;28;20028;-70
2022/05/10 19:40:39;;;;;;;2.40;2.20;;;;;;;15.55;84.68;101428.13;10544853;28;20174;-75
2022/05/10 19:45:40;;;;;;;2.05;1.58;;;;;;;15.40;85.39;101430.31;10543559;28;20052;-70
2022/05/10 19:50:40;;;;;;;2.10;1.85;;;;;;;15.21;88.06;101434.78;10545093;28;20399;-70
2022/05/10 19:55:41;;;;;;;2.13;1.77;;;;;;;15.09;87.69;101423.69;10543249;28;20056;-71
2022/05/10 20:00:41;;;;;;;4.88;2.15;;;;;;;14.99;87.01;101421.41;10543736;28;20044;-70
2022/05/10 20:05:42;;;;;;;9.57;2.63;;;;;;;14.82;88.35;101426.50;10542749;28;20110;-69
2022/05/10 20:10:44;;;;;;;5.30;2.40;;;;;;;14.70;86.72;101411.00;10542162;28;20036;-70
2022/05/10 20:15:45;;;;;;;4.28;2.55;;;;;;;14.74;86.38;101423.13;10541825;28;20467;-70
2022/05/10 20:20:46;;;;;;;3.60;2.55;;;;;;;14.74;85.10;101418.56;10542539;28;20059;-71
2022/05/10 20:25:47;;;;;;;1.83;1.70;;;;;;;14.74;85.47;101420.41;10543082;28;20053;-71
2022/05/10 20:30:47;;;;;;;6.15;2.28;;;;;;;14.72;85.26;101411.63;10525210;28;20044;-70
2022/05/10 20:35:48;;;;;;;5.40;2.08;;;;;;;14.82;83.62;101401.13;10541914;28;20460;-71
2022/05/10 20:40:48;;;;;;;5.10;2.67;;;;;;;14.89;82.68;101380.13;10543572;28;20047;-70
2022/05/10 20:45:49;;;;;;;2.97;1.77;;;;;;;14.81;82.74;101348.47;10541706;28;20063;-71
2022/05/10 20:50:49;;;;;;;9.68;2.38;;;;;;;14.79;82.47;101379.72;10541397;28;20044;-71
2022/05/10 20:55:49;;;;;;;5.78;2.40;;;;;;;14.75;82.26;101371.16;10524664;28;20027;-70
2022/05/10 21:00:50;;;;;;;4.53;2.17;;;;;;;14.71;81.26;101382.66;10523404;28;20443;-70
2022/05/10 21:05:50;;;;;;;6.00;3.22;;;;;;;14.63;81.09;101381.84;10539950;28;20032;-71
2022/05/10 21:10:51;;;;;;;5.70;3.25;;;;;;;14.52;81.79;101395.31;10541580;28;20040;-71
2022/05/10 21:15:52;;;;;;;9.05;3.45;;;;;;;14.60;80.80;101387.72;10524386;28;20056;-70
2022/05/10 21:20:53;;;;;;;12.63;3.78;;;;;;;14.57;80.93;101354.63;10542042;28;20064;-71
2022/05/10 21:25:53;;;;;;;15.93;3.67;;;;;;;14.60;79.27;101360.47;10541203;28;20033;-71
2022/05/10 21:36:13;;;;;;;7.35;3.28;;;;;;;14.47;78.56;101386.88;10537949;28;20392;-71
2022/05/10 21:41:13;;;;;;;5.60;2.92;;;;;;;14.44;79.23;101385.41;10540336;28;20036;-71
2022/05/10 21:46:13;;;;;;;4.28;3.08;;;;;;;14.46;78.49;101379.78;10540306;28;20063;-71
2022/05/10 21:51:14;;;;;;;2.85;2.63;;;;;;;14.53;78.44;101370.56;10539327;28;20047;-71
2022/05/10 21:56:14;;;;;;;7.05;3.13;;;;;;;14.53;77.88;101373.28;10540673;28;20027;-70
2022/05/10 22:01:15;;;;;;;4.53;3.58;;;;;;;14.59;75.99;101361.53;10539841;28;20089;-71
2022/05/10 22:06:15;;;;;;;16.15;4.60;;;;;;;14.58;76.13;101364.47;10540158;28;20036;-71
2022/05/10 22:11:15;;;;;;;4.22;2.33;;;;;;;14.54;76.70;101357.75;10539803;28;20127;-71
2022/05/10 22:16:16;;;;;;;4.03;2.80;;;;;;;14.57;75.12;101349.16;10539716;28;20078;-71
2022/05/10 22:21:16;;;;;;;9.50;4.38;;;;;;;14.54;76.28;101344.13;10521344;28;20036;-71
2022/05/10 22:26:17;;;;;;;6.25;2.70;;;;;;;14.51;75.88;101344.56;10505077;28;20032;-72
2022/05/10 22:31:17;;;;;;;13.50;3.92;;;;;;;14.52;74.81;101346.25;10539551;28;20043;-71
2022/05/10 22:36:18;;;;;;;13.27;2.92;;;;;;;14.48;76.35;101337.63;10538139;28;20032;-71
2022/05/10 22:41:18;;;;;;;12.15;3.22;;;;;;;14.49;75.46;101361.09;10538732;28;20047;-71
2022/05/10 22:46:19;;;;;;;8.68;3.33;;;;;;;14.38;75.63;101362.56;10539485;28;20146;-71
2022/05/10 22:51:19;;;;;;;11.85;3.92;;;;;;;14.30;74.63;101348.34;10547496;28;20043;-71
2022/05/10 22:56:19;;;;;;;8.10;3.22;;;;;;;14.22;75.75;101343.09;10528252;28;20036;-70
2022/05/10 23:01:21;;;;;;;8.98;3.08;;;;;;;14.25;77.83;101340.78;10545833;28;20032;-71
2022/05/10 23:06:21;;;;;;;8.68;3.28;;;;;;;14.32;77.32;101335.34;10546170;28;20038;-71
2022/05/10 23:11:22;;;;;;;17.27;3.03;;;;;;;14.36;77.04;101325.72;10527916;28;20040;-71
2022/05/10 23:16:22;;;;;;;6.78;3.15;;;;;;;14.43;75.73;101321.91;10545654;28;20375;-71
2022/05/10 23:21:23;;;;;;;9.85;4.05;;;;;;;14.42;76.48;101314.81;10546741;28;20036;-71
2022/05/10 23:26:24;;;;;;;9.20;3.50;;;;;;;14.45;76.52;101310.78;10511270;28;20094;-71
2022/05/10 23:31:24;;;;;;;6.40;3.35;;;;;;;14.45;77.32;101305.34;10528273;28;20043;-70
2022/05/10 23:36:25;;;;;;;9.80;3.47;;;;;;;14.42;77.76;101303.91;10544527;28;20039;-71
2022/05/10 23:41:25;;;;;;;13.05;3.80;;;;;;;14.43;78.80;101294.66;10546716;28;20040;-70
2022/05/10 23:46:26;;;;;;;9.05;3.03;;;;;;;14.42;79.93;101286.69;10549279;28;20090;-70